sensor_id;sensor_type;location;lat;lon;timestamp;temperature;humidity
39825;DHT22;25503;52.532;13.640;2022-12-20T00:01:14;4.30;99.90
39825;DHT22;25503;52.532;13.640;2022-12-20T00:03:42;4.30;99.90
39825;DHT22;25503;52.532;13.640;2022-12-20T00:06:09;4.30;99.90
39825;DHT22;25503;52.532;13.640;2022-12-20T00:08:37;4.30;99.90
39825;DHT22;25503;52.532;13.640;2022-12-20T00:11:05;4.30;99.90
39825;DHT22;25503;52.532;13.640;2022-12-20T00:13:32;4.30;99.90
39825;DHT22;25503;52.532;13.640;2022-12-20T00:16:12;4.40;99.90
39825;DHT22;25503;52.532;13.640;2022-12-20T00:18:39;4.40;99.90
39825;DHT22;25503;52.532;13.640;2022-12-20T00:21:07;4.40;99.90
39825;DHT22;25503;52.532;13.640;2022-12-20T00:23:33;4.40;99.90
39825;DHT22;25503;52.532;13.640;2022-12-20T00:26:13;4.40;99.90
39825;DHT22;25503;52.532;13.640;2022-12-20T00:28:40;4.40;99.90
39825;DHT22;25503;52.532;13.640;2022-12-20T00:31:07;4.40;99.90
39825;DHT22;25503;52.532;13.640;2022-12-20T00:33:35;4.40;99.90
39825;DHT22;25503;52.532;13.640;2022-12-20T00:36:00;4.50;99.90
39825;DHT22;25503;52.532;13.640;2022-12-20T00:38:26;4.50;99.90
39825;DHT22;25503;52.532;13.640;2022-12-20T00:41:00;4.50;99.90
39825;DHT22;25503;52.532;13.640;2022-12-20T00:43:26;4.50;99.90
39825;DHT22;25503;52.532;13.640;2022-12-20T00:45:52;4.50;99.90
39825;DHT22;25503;52.532;13.640;2022-12-20T00:48:17;4.50;99.90
39825;DHT22;25503;52.532;13.640;2022-12-20T00:50:43;4.50;99.90
39825;DHT22;25503;52.532;13.640;2022-12-20T00:53:08;4.50;99.90
39825;DHT22;25503;52.532;13.640;2022-12-20T00:55:39;4.50;99.90
39825;DHT22;25503;52.532;13.640;2022-12-20T00:58:05;4.60;99.90
39825;DHT22;25503;52.532;13.640;2022-12-20T01:00:31;4.60;99.90
39825;DHT22;25503;52.532;13.640;2022-12-20T01:02:56;4.60;99.90
39825;DHT22;25503;52.532;13.640;2022-12-20T01:05:22;4.60;99.90
39825;DHT22;25503;52.532;13.640;2022-12-20T01:07:47;4.60;99.90
39825;DHT22;25503;52.532;13.640;2022-12-20T01:10:13;4.60;99.90
39825;DHT22;25503;52.532;13.640;2022-12-20T01:12:39;4.70;99.90
39825;DHT22;25503;52.532;13.640;2022-12-20T01:15:05;4.70;99.90
39825;DHT22;25503;52.532;13.640;2022-12-20T01:17:31;4.70;99.90
39825;DHT22;25503;52.532;13.640;2022-12-20T01:19:57;4.70;99.90
39825;DHT22;25503;52.532;13.640;2022-12-20T01:22:22;4.80;99.90
39825;DHT22;25503;52.532;13.640;2022-12-20T01:24:48;4.70;99.90
39825;DHT22;25503;52.532;13.640;2022-12-20T01:27:13;4.70;99.90
39825;DHT22;25503;52.532;13.640;2022-12-20T01:29:39;4.80;99.90
39825;DHT22;25503;52.532;13.640;2022-12-20T01:32:05;4.70;99.90
39825;DHT22;25503;52.532;13.640;2022-12-20T01:34:30;4.70;99.90
39825;DHT22;25503;52.532;13.640;2022-12-20T01:36:56;4.70;99.90
39825;DHT22;25503;52.532;13.640;2022-12-20T01:39:21;4.70;99.90
39825;DHT22;25503;52.532;13.640;2022-12-20T01:41:48;4.70;99.90
39825;DHT22;25503;52.532;13.640;2022-12-20T01:46:43;4.70;99.90
39825;DHT22;25503;52.532;13.640;2022-12-20T01:49:16;4.70;99.90
39825;DHT22;25503;52.532;13.640;2022-12-20T01:51:54;4.70;99.90
39825;DHT22;25503;52.532;13.640;2022-12-20T01:54:28;4.80;99.90
39825;DHT22;25503;52.532;13.640;2022-12-20T01:56:58;4.70;99.90
39825;DHT22;25503;52.532;13.640;2022-12-20T01:59:25;4.80;99.90
39825;DHT22;25503;52.532;13.640;2022-12-20T02:01:52;4.80;99.90
39825;DHT22;25503;52.532;13.640;2022-12-20T02:04:20;4.70;99.90
39825;DHT22;25503;52.532;13.640;2022-12-20T02:06:45;4.80;99.90
39825;DHT22;25503;52.532;13.640;2022-12-20T02:09:11;4.80;99.90
39825;DHT22;25503;52.532;13.640;2022-12-20T02:11:48;4.80;99.90
39825;DHT22;25503;52.532;13.640;2022-12-20T02:23:08;4.80;99.90
39825;DHT22;25503;52.532;13.640;2022-12-20T02:28:29;4.80;99.90
39825;DHT22;25503;52.532;13.640;2022-12-20T02:30:59;4.80;99.90
39825;DHT22;25503;52.532;13.640;2022-12-20T02:33:27;4.80;99.90
39825;DHT22;25503;52.532;13.640;2022-12-20T02:35:53;4.80;99.90
39825;DHT22;25503;52.532;13.640;2022-12-20T02:38:31;4.80;99.90
39825;DHT22;25503;52.532;13.640;2022-12-20T02:43:30;4.90;99.90
39825;DHT22;25503;52.532;13.640;2022-12-20T02:46:18;4.90;99.90
39825;DHT22;25503;52.532;13.640;2022-12-20T02:48:46;4.90;99.90
39825;DHT22;25503;52.532;13.640;2022-12-20T02:51:12;4.90;99.90
39825;DHT22;25503;52.532;13.640;2022-12-20T02:53:40;4.90;99.90
39825;DHT22;25503;52.532;13.640;2022-12-20T02:56:22;4.90;99.90
39825;DHT22;25503;52.532;13.640;2022-12-20T02:59:12;4.90;99.90
39825;DHT22;25503;52.532;13.640;2022-12-20T03:01:47;4.90;99.90
39825;DHT22;25503;52.532;13.640;2022-12-20T03:04:15;4.90;99.90
39825;DHT22;25503;52.532;13.640;2022-12-20T03:09:20;4.90;99.90
39825;DHT22;25503;52.532;13.640;2022-12-20T03:11:46;5.00;99.90
39825;DHT22;25503;52.532;13.640;2022-12-20T03:14:12;5.00;99.90
39825;DHT22;25503;52.532;13.640;2022-12-20T03:16:37;5.00;99.90
39825;DHT22;25503;52.532;13.640;2022-12-20T03:19:03;5.00;99.90
39825;DHT22;25503;52.532;13.640;2022-12-20T03:21:28;5.00;99.90
39825;DHT22;25503;52.532;13.640;2022-12-20T03:23:55;5.00;99.90
39825;DHT22;25503;52.532;13.640;2022-12-20T03:26:21;5.00;99.90
39825;DHT22;25503;52.532;13.640;2022-12-20T03:28:46;5.00;99.90
39825;DHT22;25503;52.532;13.640;2022-12-20T03:31:12;5.00;99.90
39825;DHT22;25503;52.532;13.640;2022-12-20T03:33:38;5.00;99.90
39825;DHT22;25503;52.532;13.640;2022-12-20T03:36:03;5.00;99.90
39825;DHT22;25503;52.532;13.640;2022-12-20T03:38:29;5.00;99.90
39825;DHT22;25503;52.532;13.640;2022-12-20T03:40:54;5.10;99.90
39825;DHT22;25503;52.532;13.640;2022-12-20T03:43:20;5.10;99.90
39825;DHT22;25503;52.532;13.640;2022-12-20T03:45:46;5.10;99.90
39825;DHT22;25503;52.532;13.640;2022-12-20T03:48:11;5.10;99.90
39825;DHT22;25503;52.532;13.640;2022-12-20T03:50:37;5.10;99.90
39825;DHT22;25503;52.532;13.640;2022-12-20T03:53:02;5.10;99.90
39825;DHT22;25503;52.532;13.640;2022-12-20T03:55:28;5.10;99.90
39825;DHT22;25503;52.532;13.640;2022-12-20T03:57:54;5.20;99.90
39825;DHT22;25503;52.532;13.640;2022-12-20T04:00:19;5.20;99.90
39825;DHT22;25503;52.532;13.640;2022-12-20T04:02:46;5.20;99.90
39825;DHT22;25503;52.532;13.640;2022-12-20T04:05:12;5.20;99.90
39825;DHT22;25503;52.532;13.640;2022-12-20T04:07:37;5.20;99.90
39825;DHT22;25503;52.532;13.640;2022-12-20T04:10:03;5.20;99.90
39825;DHT22;25503;52.532;13.640;2022-12-20T04:12:29;5.20;99.90
39825;DHT22;25503;52.532;13.640;2022-12-20T04:14:55;5.20;99.90
39825;DHT22;25503;52.532;13.640;2022-12-20T04:17:20;5.20;99.90
39825;DHT22;25503;52.532;13.640;2022-12-20T04:19:47;5.20;99.90
39825;DHT22;25503;52.532;13.640;2022-12-20T04:22:12;5.20;99.90
39825;DHT22;25503;52.532;13.640;2022-12-20T04:24:38;5.20;99.90
39825;DHT22;25503;52.532;13.640;2022-12-20T04:27:03;5.20;99.90
39825;DHT22;25503;52.532;13.640;2022-12-20T04:29:29;5.20;99.90
39825;DHT22;25503;52.532;13.640;2022-12-20T04:31:55;5.20;99.90
39825;DHT22;25503;52.532;13.640;2022-12-20T04:34:20;5.30;99.90
39825;DHT22;25503;52.532;13.640;2022-12-20T04:36:46;5.20;99.90
39825;DHT22;25503;52.532;13.640;2022-12-20T04:39:12;5.20;99.90
39825;DHT22;25503;52.532;13.640;2022-12-20T04:41:37;5.20;99.90
39825;DHT22;25503;52.532;13.640;2022-12-20T04:44:03;5.20;99.90
39825;DHT22;25503;52.532;13.640;2022-12-20T04:46:28;5.20;99.90
39825;DHT22;25503;52.532;13.640;2022-12-20T04:48:54;5.20;99.90
39825;DHT22;25503;52.532;13.640;2022-12-20T04:51:20;5.10;99.90
39825;DHT22;25503;52.532;13.640;2022-12-20T04:53:46;5.10;99.90
39825;DHT22;25503;52.532;13.640;2022-12-20T04:56:15;5.10;99.90
39825;DHT22;25503;52.532;13.640;2022-12-20T04:58:41;5.00;99.90
39825;DHT22;25503;52.532;13.640;2022-12-20T05:01:07;5.00;99.90
39825;DHT22;25503;52.532;13.640;2022-12-20T05:03:33;5.00;99.90
39825;DHT22;25503;52.532;13.640;2022-12-20T05:05:58;4.90;99.90
39825;DHT22;25503;52.532;13.640;2022-12-20T05:08:24;4.90;99.90
39825;DHT22;25503;52.532;13.640;2022-12-20T05:10:50;4.90;99.90
39825;DHT22;25503;52.532;13.640;2022-12-20T05:13:16;4.80;99.90
39825;DHT22;25503;52.532;13.640;2022-12-20T05:15:42;4.80;99.90
39825;DHT22;25503;52.532;13.640;2022-12-20T05:18:08;4.80;99.90
39825;DHT22;25503;52.532;13.640;2022-12-20T05:20:34;4.80;99.90
39825;DHT22;25503;52.532;13.640;2022-12-20T05:22:59;4.80;99.90
39825;DHT22;25503;52.532;13.640;2022-12-20T05:25:46;4.80;99.90
39825;DHT22;25503;52.532;13.640;2022-12-20T05:28:31;4.80;99.90
39825;DHT22;25503;52.532;13.640;2022-12-20T05:30:57;4.80;99.90
39825;DHT22;25503;52.532;13.640;2022-12-20T05:33:23;4.80;99.90
39825;DHT22;25503;52.532;13.640;2022-12-20T05:35:48;4.80;99.90
39825;DHT22;25503;52.532;13.640;2022-12-20T05:38:14;4.90;99.90
39825;DHT22;25503;52.532;13.640;2022-12-20T05:40:40;4.90;99.90
39825;DHT22;25503;52.532;13.640;2022-12-20T05:43:06;5.00;99.90
39825;DHT22;25503;52.532;13.640;2022-12-20T05:45:32;5.00;99.90
39825;DHT22;25503;52.532;13.640;2022-12-20T05:47:57;5.00;99.90
39825;DHT22;25503;52.532;13.640;2022-12-20T05:50:23;5.10;99.90
39825;DHT22;25503;52.532;13.640;2022-12-20T05:52:49;5.10;99.90
39825;DHT22;25503;52.532;13.640;2022-12-20T05:55:14;5.10;99.90
39825;DHT22;25503;52.532;13.640;2022-12-20T05:57:40;5.10;99.90
39825;DHT22;25503;52.532;13.640;2022-12-20T06:00:06;5.20;99.90
39825;DHT22;25503;52.532;13.640;2022-12-20T06:02:32;5.20;99.90
39825;DHT22;25503;52.532;13.640;2022-12-20T06:04:58;5.20;99.90
39825;DHT22;25503;52.532;13.640;2022-12-20T06:07:24;5.20;99.90
39825;DHT22;25503;52.532;13.640;2022-12-20T06:09:51;5.30;99.90
39825;DHT22;25503;52.532;13.640;2022-12-20T06:12:16;5.30;99.90
39825;DHT22;25503;52.532;13.640;2022-12-20T06:14:42;5.30;99.90
39825;DHT22;25503;52.532;13.640;2022-12-20T06:17:08;5.40;99.90
39825;DHT22;25503;52.532;13.640;2022-12-20T06:19:33;5.40;99.90
39825;DHT22;25503;52.532;13.640;2022-12-20T06:21:59;5.40;99.90
39825;DHT22;25503;52.532;13.640;2022-12-20T06:24:25;5.50;99.90
39825;DHT22;25503;52.532;13.640;2022-12-20T06:26:51;5.50;99.90
39825;DHT22;25503;52.532;13.640;2022-12-20T06:29:17;5.50;99.90
39825;DHT22;25503;52.532;13.640;2022-12-20T06:31:45;5.60;99.90
39825;DHT22;25503;52.532;13.640;2022-12-20T06:34:11;5.60;99.90
39825;DHT22;25503;52.532;13.640;2022-12-20T06:36:36;5.70;99.90
39825;DHT22;25503;52.532;13.640;2022-12-20T06:39:02;5.70;99.90
39825;DHT22;25503;52.532;13.640;2022-12-20T06:41:28;5.70;99.90
39825;DHT22;25503;52.532;13.640;2022-12-20T06:43:53;5.80;99.90
39825;DHT22;25503;52.532;13.640;2022-12-20T06:46:19;5.80;99.90
39825;DHT22;25503;52.532;13.640;2022-12-20T06:48:44;5.80;99.90
39825;DHT22;25503;52.532;13.640;2022-12-20T06:51:10;5.80;99.90
39825;DHT22;25503;52.532;13.640;2022-12-20T06:53:36;5.80;99.90
39825;DHT22;25503;52.532;13.640;2022-12-20T06:56:01;5.80;99.90
39825;DHT22;25503;52.532;13.640;2022-12-20T06:58:27;5.80;99.90
39825;DHT22;25503;52.532;13.640;2022-12-20T07:00:53;5.90;99.90
39825;DHT22;25503;52.532;13.640;2022-12-20T07:03:19;5.80;99.90
39825;DHT22;25503;52.532;13.640;2022-12-20T07:05:53;5.80;99.90
39825;DHT22;25503;52.532;13.640;2022-12-20T07:08:20;5.90;99.90
39825;DHT22;25503;52.532;13.640;2022-12-20T07:10:45;5.80;99.90
39825;DHT22;25503;52.532;13.640;2022-12-20T07:13:11;5.80;99.90
39825;DHT22;25503;52.532;13.640;2022-12-20T07:15:37;5.80;99.90
39825;DHT22;25503;52.532;13.640;2022-12-20T07:18:03;5.80;99.90
39825;DHT22;25503;52.532;13.640;2022-12-20T07:20:30;5.80;99.90
39825;DHT22;25503;52.532;13.640;2022-12-20T07:22:56;5.80;99.90
39825;DHT22;25503;52.532;13.640;2022-12-20T07:25:21;5.90;99.90
39825;DHT22;25503;52.532;13.640;2022-12-20T07:27:48;5.80;99.90
39825;DHT22;25503;52.532;13.640;2022-12-20T07:30:17;5.90;99.90
39825;DHT22;25503;52.532;13.640;2022-12-20T07:32:43;5.90;99.90
39825;DHT22;25503;52.532;13.640;2022-12-20T07:35:10;5.90;99.90
39825;DHT22;25503;52.532;13.640;2022-12-20T07:37:36;5.90;99.90
39825;DHT22;25503;52.532;13.640;2022-12-20T07:40:02;5.90;99.90
39825;DHT22;25503;52.532;13.640;2022-12-20T07:42:28;5.90;99.90
39825;DHT22;25503;52.532;13.640;2022-12-20T07:44:54;6.00;99.90
39825;DHT22;25503;52.532;13.640;2022-12-20T07:47:19;6.00;99.90
39825;DHT22;25503;52.532;13.640;2022-12-20T07:49:45;6.00;99.90
39825;DHT22;25503;52.532;13.640;2022-12-20T07:52:12;6.00;99.90
39825;DHT22;25503;52.532;13.640;2022-12-20T07:54:48;6.00;99.90
39825;DHT22;25503;52.532;13.640;2022-12-20T07:57:42;6.00;99.90
39825;DHT22;25503;52.532;13.640;2022-12-20T08:00:09;6.10;99.90
39825;DHT22;25503;52.532;13.640;2022-12-20T08:02:38;6.00;99.90
39825;DHT22;25503;52.532;13.640;2022-12-20T08:05:07;6.00;99.90
39825;DHT22;25503;52.532;13.640;2022-12-20T08:07:35;6.10;99.90
39825;DHT22;25503;52.532;13.640;2022-12-20T08:10:02;6.10;99.90
39825;DHT22;25503;52.532;13.640;2022-12-20T08:12:29;6.10;99.90
39825;DHT22;25503;52.532;13.640;2022-12-20T08:14:56;6.10;99.90
39825;DHT22;25503;52.532;13.640;2022-12-20T08:17:22;6.10;99.90
39825;DHT22;25503;52.532;13.640;2022-12-20T08:19:48;6.10;99.90
39825;DHT22;25503;52.532;13.640;2022-12-20T08:22:16;6.10;99.90
39825;DHT22;25503;52.532;13.640;2022-12-20T08:24:42;6.10;99.90
39825;DHT22;25503;52.532;13.640;2022-12-20T08:27:08;6.10;99.90
39825;DHT22;25503;52.532;13.640;2022-12-20T08:29:33;6.10;99.90
39825;DHT22;25503;52.532;13.640;2022-12-20T08:31:59;6.10;99.90
39825;DHT22;25503;52.532;13.640;2022-12-20T08:34:25;6.10;99.90
39825;DHT22;25503;52.532;13.640;2022-12-20T08:36:51;6.20;99.90
39825;DHT22;25503;52.532;13.640;2022-12-20T08:39:16;6.20;99.90
39825;DHT22;25503;52.532;13.640;2022-12-20T08:41:42;6.20;99.90
39825;DHT22;25503;52.532;13.640;2022-12-20T08:44:07;6.20;99.90
39825;DHT22;25503;52.532;13.640;2022-12-20T08:46:35;6.20;99.90
39825;DHT22;25503;52.532;13.640;2022-12-20T08:49:02;6.20;99.90
39825;DHT22;25503;52.532;13.640;2022-12-20T08:51:27;6.30;99.90
39825;DHT22;25503;52.532;13.640;2022-12-20T08:53:53;6.30;99.90
39825;DHT22;25503;52.532;13.640;2022-12-20T08:56:19;6.30;99.90
39825;DHT22;25503;52.532;13.640;2022-12-20T08:58:45;6.30;99.90
39825;DHT22;25503;52.532;13.640;2022-12-20T09:01:13;6.30;99.90
39825;DHT22;25503;52.532;13.640;2022-12-20T09:03:39;6.30;99.90
39825;DHT22;25503;52.532;13.640;2022-12-20T09:06:11;6.40;99.90
39825;DHT22;25503;52.532;13.640;2022-12-20T09:08:38;6.30;99.90
39825;DHT22;25503;52.532;13.640;2022-12-20T09:11:23;6.40;99.90
39825;DHT22;25503;52.532;13.640;2022-12-20T09:13:51;6.40;99.90
39825;DHT22;25503;52.532;13.640;2022-12-20T09:16:19;6.50;99.90
39825;DHT22;25503;52.532;13.640;2022-12-20T09:18:50;6.50;99.90
39825;DHT22;25503;52.532;13.640;2022-12-20T09:21:17;6.50;99.90
39825;DHT22;25503;52.532;13.640;2022-12-20T09:23:43;6.50;99.90
39825;DHT22;25503;52.532;13.640;2022-12-20T09:26:14;6.60;99.90
39825;DHT22;25503;52.532;13.640;2022-12-20T09:28:41;6.60;99.90
39825;DHT22;25503;52.532;13.640;2022-12-20T09:31:10;6.60;99.90
39825;DHT22;25503;52.532;13.640;2022-12-20T09:33:36;6.70;99.90
39825;DHT22;25503;52.532;13.640;2022-12-20T09:36:03;6.70;99.90
39825;DHT22;25503;52.532;13.640;2022-12-20T09:38:30;6.70;99.90
39825;DHT22;25503;52.532;13.640;2022-12-20T09:40:58;6.80;99.90
39825;DHT22;25503;52.532;13.640;2022-12-20T09:43:26;6.80;99.90
39825;DHT22;25503;52.532;13.640;2022-12-20T09:45:54;6.80;99.90
39825;DHT22;25503;52.532;13.640;2022-12-20T09:48:33;6.90;99.90
39825;DHT22;25503;52.532;13.640;2022-12-20T09:56:50;7.10;99.90
39825;DHT22;25503;52.532;13.640;2022-12-20T09:59:18;7.20;99.90
39825;DHT22;25503;52.532;13.640;2022-12-20T10:01:47;7.20;99.90
39825;DHT22;25503;52.532;13.640;2022-12-20T10:04:27;7.30;99.90
39825;DHT22;25503;52.532;13.640;2022-12-20T10:07:19;7.40;99.90
39825;DHT22;25503;52.532;13.640;2022-12-20T10:15:39;7.50;99.90
39825;DHT22;25503;52.532;13.640;2022-12-20T10:18:41;7.60;99.90
39825;DHT22;25503;52.532;13.640;2022-12-20T10:24:04;7.70;99.90
39825;DHT22;25503;52.532;13.640;2022-12-20T10:26:34;7.80;99.90
39825;DHT22;25503;52.532;13.640;2022-12-20T10:29:00;7.80;99.90
39825;DHT22;25503;52.532;13.640;2022-12-20T10:31:26;7.80;99.90
39825;DHT22;25503;52.532;13.640;2022-12-20T10:33:51;7.90;99.90
39825;DHT22;25503;52.532;13.640;2022-12-20T10:36:32;7.90;99.90
39825;DHT22;25503;52.532;13.640;2022-12-20T10:39:04;8.00;99.90
39825;DHT22;25503;52.532;13.640;2022-12-20T10:41:54;8.00;99.90
39825;DHT22;25503;52.532;13.640;2022-12-20T10:44:25;8.00;99.90
39825;DHT22;25503;52.532;13.640;2022-12-20T10:46:54;8.00;99.90
39825;DHT22;25503;52.532;13.640;2022-12-20T10:49:32;8.00;99.90
39825;DHT22;25503;52.532;13.640;2022-12-20T10:52:11;8.00;99.90
39825;DHT22;25503;52.532;13.640;2022-12-20T10:54:42;8.00;99.90
39825;DHT22;25503;52.532;13.640;2022-12-20T10:57:18;8.10;99.90
39825;DHT22;25503;52.532;13.640;2022-12-20T11:00:04;8.10;99.90
39825;DHT22;25503;52.532;13.640;2022-12-20T11:02:37;8.30;99.90
39825;DHT22;25503;52.532;13.640;2022-12-20T11:05:20;8.30;99.90
39825;DHT22;25503;52.532;13.640;2022-12-20T11:10:25;8.50;99.90
39825;DHT22;25503;52.532;13.640;2022-12-20T11:12:57;8.60;99.90
39825;DHT22;25503;52.532;13.640;2022-12-20T11:15:29;8.70;99.90
39825;DHT22;25503;52.532;13.640;2022-12-20T11:18:04;8.70;99.90
39825;DHT22;25503;52.532;13.640;2022-12-20T11:23:43;8.80;99.90
39825;DHT22;25503;52.532;13.640;2022-12-20T11:37:31;8.80;99.90
39825;DHT22;25503;52.532;13.640;2022-12-20T11:42:26;8.70;99.90
39825;DHT22;25503;52.532;13.640;2022-12-20T11:48:04;8.70;99.90
39825;DHT22;25503;52.532;13.640;2022-12-20T11:51:23;8.60;99.90
39825;DHT22;25503;52.532;13.640;2022-12-20T11:53:36;8.60;99.90
39825;DHT22;25503;52.532;13.640;2022-12-20T11:56:25;8.50;99.90
39825;DHT22;25503;52.532;13.640;2022-12-20T11:58:59;8.50;99.90
39825;DHT22;25503;52.532;13.640;2022-12-20T12:01:34;8.50;99.90
39825;DHT22;25503;52.532;13.640;2022-12-20T12:04:21;8.50;99.90
39825;DHT22;25503;52.532;13.640;2022-12-20T12:06:58;8.40;99.90
39825;DHT22;25503;52.532;13.640;2022-12-20T12:09:36;8.40;99.90
39825;DHT22;25503;52.532;13.640;2022-12-20T12:12:10;8.40;99.90
39825;DHT22;25503;52.532;13.640;2022-12-20T12:15:05;8.30;99.90
39825;DHT22;25503;52.532;13.640;2022-12-20T12:18:11;8.40;99.90
39825;DHT22;25503;52.532;13.640;2022-12-20T12:20:58;8.30;99.90
39825;DHT22;25503;52.532;13.640;2022-12-20T12:26:14;8.30;99.90
39825;DHT22;25503;52.532;13.640;2022-12-20T12:28:43;8.30;99.90
39825;DHT22;25503;52.532;13.640;2022-12-20T12:31:13;8.20;99.90
39825;DHT22;25503;52.532;13.640;2022-12-20T12:33:47;8.20;99.90
39825;DHT22;25503;52.532;13.640;2022-12-20T12:44:38;8.00;99.90
39825;DHT22;25503;52.532;13.640;2022-12-20T12:47:11;7.90;99.90
39825;DHT22;25503;52.532;13.640;2022-12-20T12:49:42;7.90;99.90
39825;DHT22;25503;52.532;13.640;2022-12-20T12:52:34;7.80;99.90
39825;DHT22;25503;52.532;13.640;2022-12-20T13:03:44;7.60;99.90
39825;DHT22;25503;52.532;13.640;2022-12-20T13:11:31;7.40;99.90
39825;DHT22;25503;52.532;13.640;2022-12-20T13:16:50;7.30;99.90
39825;DHT22;25503;52.532;13.640;2022-12-20T13:21:47;7.20;99.90
39825;DHT22;25503;52.532;13.640;2022-12-20T13:24:46;7.20;99.90
39825;DHT22;25503;52.532;13.640;2022-12-20T13:29:59;7.20;99.90
39825;DHT22;25503;52.532;13.640;2022-12-20T13:40:38;7.10;99.90
39825;DHT22;25503;52.532;13.640;2022-12-20T13:45:49;7.10;99.90
39825;DHT22;25503;52.532;13.640;2022-12-20T13:48:19;7.00;99.90
39825;DHT22;25503;52.532;13.640;2022-12-20T13:50:51;7.00;99.90
39825;DHT22;25503;52.532;13.640;2022-12-20T13:53:19;7.00;99.90
39825;DHT22;25503;52.532;13.640;2022-12-20T13:55:45;7.00;99.90
39825;DHT22;25503;52.532;13.640;2022-12-20T13:58:32;7.00;99.90
39825;DHT22;25503;52.532;13.640;2022-12-20T14:01:06;7.00;99.90
39825;DHT22;25503;52.532;13.640;2022-12-20T14:03:40;6.90;99.90
39825;DHT22;25503;52.532;13.640;2022-12-20T14:06:09;7.00;99.90
39825;DHT22;25503;52.532;13.640;2022-12-20T14:08:41;6.90;99.90
39825;DHT22;25503;52.532;13.640;2022-12-20T14:11:18;6.90;99.90
39825;DHT22;25503;52.532;13.640;2022-12-20T14:14:03;6.90;99.90
39825;DHT22;25503;52.532;13.640;2022-12-20T14:16:31;6.90;99.90
39825;DHT22;25503;52.532;13.640;2022-12-20T14:19:04;6.90;99.90
39825;DHT22;25503;52.532;13.640;2022-12-20T14:21:32;6.80;99.90
39825;DHT22;25503;52.532;13.640;2022-12-20T14:24:00;6.80;99.90
39825;DHT22;25503;52.532;13.640;2022-12-20T14:26:29;6.80;99.90
39825;DHT22;25503;52.532;13.640;2022-12-20T14:28:59;6.80;99.90
39825;DHT22;25503;52.532;13.640;2022-12-20T14:36:38;6.80;99.90
39825;DHT22;25503;52.532;13.640;2022-12-20T14:39:27;6.80;99.90
39825;DHT22;25503;52.532;13.640;2022-12-20T14:44:33;6.70;99.90
39825;DHT22;25503;52.532;13.640;2022-12-20T14:47:11;6.80;99.90
39825;DHT22;25503;52.532;13.640;2022-12-20T14:49:38;6.70;99.90
39825;DHT22;25503;52.532;13.640;2022-12-20T14:52:12;6.70;99.90
39825;DHT22;25503;52.532;13.640;2022-12-20T15:00:20;6.60;99.90
39825;DHT22;25503;52.532;13.640;2022-12-20T15:13:35;6.40;99.90
39825;DHT22;25503;52.532;13.640;2022-12-20T15:16:05;6.40;99.90
39825;DHT22;25503;52.532;13.640;2022-12-20T15:18:37;6.30;99.90
39825;DHT22;25503;52.532;13.640;2022-12-20T15:21:24;6.30;99.90
39825;DHT22;25503;52.532;13.640;2022-12-20T15:23:53;6.30;99.90
39825;DHT22;25503;52.532;13.640;2022-12-20T15:26:22;6.30;99.90
39825;DHT22;25503;52.532;13.640;2022-12-20T15:28:48;6.30;99.90
39825;DHT22;25503;52.532;13.640;2022-12-20T15:31:15;6.20;99.90
39825;DHT22;25503;52.532;13.640;2022-12-20T15:33:42;6.20;99.90
39825;DHT22;25503;52.532;13.640;2022-12-20T15:36:20;6.20;99.90
39825;DHT22;25503;52.532;13.640;2022-12-20T15:38:46;6.20;99.90
39825;DHT22;25503;52.532;13.640;2022-12-20T15:41:26;6.20;99.90
39825;DHT22;25503;52.532;13.640;2022-12-20T15:43:58;6.10;99.90
39825;DHT22;25503;52.532;13.640;2022-12-20T15:46:24;6.20;99.90
39825;DHT22;25503;52.532;13.640;2022-12-20T15:48:50;6.10;99.90
39825;DHT22;25503;52.532;13.640;2022-12-20T15:51:36;6.10;99.90
39825;DHT22;25503;52.532;13.640;2022-12-20T15:54:10;6.10;99.90
39825;DHT22;25503;52.532;13.640;2022-12-20T15:56:38;6.00;99.90
39825;DHT22;25503;52.532;13.640;2022-12-20T15:59:04;6.00;99.90
39825;DHT22;25503;52.532;13.640;2022-12-20T16:01:37;6.00;99.90
39825;DHT22;25503;52.532;13.640;2022-12-20T16:04:04;6.00;99.90
39825;DHT22;25503;52.532;13.640;2022-12-20T16:06:30;6.00;99.90
39825;DHT22;25503;52.532;13.640;2022-12-20T16:08:56;5.90;99.90
39825;DHT22;25503;52.532;13.640;2022-12-20T16:11:24;5.90;99.90
39825;DHT22;25503;52.532;13.640;2022-12-20T16:13:52;5.90;99.90
39825;DHT22;25503;52.532;13.640;2022-12-20T16:16:20;5.90;99.90
39825;DHT22;25503;52.532;13.640;2022-12-20T16:18:46;5.90;99.90
39825;DHT22;25503;52.532;13.640;2022-12-20T16:21:17;5.80;99.90
39825;DHT22;25503;52.532;13.640;2022-12-20T16:23:44;5.80;99.90
39825;DHT22;25503;52.532;13.640;2022-12-20T16:26:17;5.80;99.90
39825;DHT22;25503;52.532;13.640;2022-12-20T16:28:44;5.80;99.90
39825;DHT22;25503;52.532;13.640;2022-12-20T16:31:25;5.80;99.90
39825;DHT22;25503;52.532;13.640;2022-12-20T16:33:52;5.80;99.90
39825;DHT22;25503;52.532;13.640;2022-12-20T16:36:19;5.80;99.90
39825;DHT22;25503;52.532;13.640;2022-12-20T16:38:44;5.70;99.90
39825;DHT22;25503;52.532;13.640;2022-12-20T16:41:19;5.70;99.90
39825;DHT22;25503;52.532;13.640;2022-12-20T16:43:45;5.70;99.90
39825;DHT22;25503;52.532;13.640;2022-12-20T16:46:13;5.70;99.90
39825;DHT22;25503;52.532;13.640;2022-12-20T16:48:39;5.70;99.90
39825;DHT22;25503;52.532;13.640;2022-12-20T16:53:47;5.70;99.90
39825;DHT22;25503;52.532;13.640;2022-12-20T16:56:14;5.70;99.90
39825;DHT22;25503;52.532;13.640;2022-12-20T16:58:39;5.60;99.90
39825;DHT22;25503;52.532;13.640;2022-12-20T17:01:05;5.60;99.90
39825;DHT22;25503;52.532;13.640;2022-12-20T17:03:31;5.60;99.90
39825;DHT22;25503;52.532;13.640;2022-12-20T17:05:57;5.60;99.90
39825;DHT22;25503;52.532;13.640;2022-12-20T17:08:22;5.60;99.90
39825;DHT22;25503;52.532;13.640;2022-12-20T17:10:48;5.60;99.90
39825;DHT22;25503;52.532;13.640;2022-12-20T17:13:13;5.60;99.90
39825;DHT22;25503;52.532;13.640;2022-12-20T17:15:39;5.60;99.90
39825;DHT22;25503;52.532;13.640;2022-12-20T17:18:07;5.60;99.90
39825;DHT22;25503;52.532;13.640;2022-12-20T17:20:33;5.50;99.90
39825;DHT22;25503;52.532;13.640;2022-12-20T17:22:58;5.50;99.90
39825;DHT22;25503;52.532;13.640;2022-12-20T17:25:27;5.50;99.90
39825;DHT22;25503;52.532;13.640;2022-12-20T17:27:53;5.50;99.90
39825;DHT22;25503;52.532;13.640;2022-12-20T17:30:20;5.50;99.90
39825;DHT22;25503;52.532;13.640;2022-12-20T17:32:47;5.40;99.90
39825;DHT22;25503;52.532;13.640;2022-12-20T17:35:18;5.40;99.90
39825;DHT22;25503;52.532;13.640;2022-12-20T17:37:45;5.40;99.90
39825;DHT22;25503;52.532;13.640;2022-12-20T17:40:14;5.40;99.90
39825;DHT22;25503;52.532;13.640;2022-12-20T17:42:41;5.40;99.90
39825;DHT22;25503;52.532;13.640;2022-12-20T17:47:44;5.40;99.90
39825;DHT22;25503;52.532;13.640;2022-12-20T17:50:10;5.40;99.90
39825;DHT22;25503;52.532;13.640;2022-12-20T17:52:35;5.40;99.90